<?xml version="1.0" encoding="UTF-8" standalone="no" ?>
<gpx xmlns="http://www.topografix.com/GPX/1/1" xmlns:xsi="http://www.w3.org/2001/XMLSchema-instance" xsi:schemaLocation="http://www.topografix.com/GPX/1/1 http://www.topografix.com/GPX/1/1/gpx.xsd" version="1.1" creator="VisuGPX - https://www.visugpx.com">
  <metadata>
    <name>11223602-Bois de Moutrot</name>
    <desc><![CDATA[Exemple de circuit d'entraînement ]]></desc>
  </metadata>
  <trk>
    <name><![CDATA[11223602-Bois de Moutrot]]></name>
    <trkseg>
      <trkpt lat="47.70728" lon="5.88754">
        <ele>256</ele>
        <time>2020-04-22T12:08:10Z</time>
      </trkpt>
      <trkpt lat="47.70683" lon="5.88774">
        <ele>254</ele>
        <time>2020-04-22T12:08:48Z</time>
      </trkpt>
      <trkpt lat="47.70504" lon="5.88897">
        <ele>252</ele>
        <time>2020-04-22T12:11:26Z</time>
      </trkpt>
      <trkpt lat="47.70464" lon="5.889">
        <ele>254</ele>
        <time>2020-04-22T12:11:58Z</time>
      </trkpt>
      <trkpt lat="47.70329" lon="5.88824">
        <ele>259</ele>
        <time>2020-04-22T12:13:53Z</time>
      </trkpt>
      <trkpt lat="47.70196" lon="5.88869">
        <ele>253</ele>
        <time>2020-04-22T12:15:42Z</time>
      </trkpt>
      <trkpt lat="47.7009" lon="5.88917">
        <ele>248</ele>
        <time>2020-04-22T12:17:11Z</time>
      </trkpt>
      <trkpt lat="47.70046" lon="5.88942">
        <ele>247</ele>
        <time>2020-04-22T12:17:49Z</time>
      </trkpt>
      <trkpt lat="47.70042" lon="5.88947">
        <ele>247</ele>
        <time>2020-04-22T12:17:53Z</time>
      </trkpt>
      <trkpt lat="47.70023" lon="5.8908">
        <ele>258</ele>
        <time>2020-04-22T12:19:06Z</time>
      </trkpt>
      <trkpt lat="47.69965" lon="5.89071">
        <ele>257</ele>
        <time>2020-04-22T12:19:53Z</time>
      </trkpt>
      <trkpt lat="47.69944" lon="5.89077">
        <ele>258</ele>
        <time>2020-04-22T12:20:10Z</time>
      </trkpt>
      <trkpt lat="47.6987" lon="5.89118">
        <ele>259</ele>
        <time>2020-04-22T12:21:13Z</time>
      </trkpt>
      <trkpt lat="47.69775" lon="5.89189">
        <ele>263</ele>
        <time>2020-04-22T12:22:38Z</time>
      </trkpt>
      <trkpt lat="47.69564" lon="5.89249">
        <ele>272</ele>
        <time>2020-04-22T12:25:30Z</time>
      </trkpt>
      <trkpt lat="47.69464" lon="5.89296">
        <ele>266</ele>
        <time>2020-04-22T12:26:54Z</time>
      </trkpt>
      <trkpt lat="47.69396" lon="5.89318">
        <ele>260</ele>
        <time>2020-04-22T12:27:50Z</time>
      </trkpt>
      <trkpt lat="47.69345" lon="5.89312">
        <ele>254</ele>
        <time>2020-04-22T12:28:31Z</time>
      </trkpt>
      <trkpt lat="47.69278" lon="5.89341">
        <ele>253</ele>
        <time>2020-04-22T12:29:27Z</time>
      </trkpt>
      <trkpt lat="47.69255" lon="5.8932">
        <ele>250</ele>
        <time>2020-04-22T12:29:49Z</time>
      </trkpt>
      <trkpt lat="47.69212" lon="5.89165">
        <ele>249</ele>
        <time>2020-04-22T12:31:19Z</time>
      </trkpt>
      <trkpt lat="47.69225" lon="5.89138">
        <ele>250</ele>
        <time>2020-04-22T12:31:37Z</time>
      </trkpt>
      <trkpt lat="47.69331" lon="5.89117">
        <ele>255</ele>
        <time>2020-04-22T12:33:03Z</time>
      </trkpt>
      <trkpt lat="47.69398" lon="5.8908">
        <ele>253</ele>
        <time>2020-04-22T12:34:00Z</time>
      </trkpt>
      <trkpt lat="47.69485" lon="5.89035">
        <ele>257</ele>
        <time>2020-04-22T12:35:13Z</time>
      </trkpt>
      <trkpt lat="47.69578" lon="5.8901">
        <ele>256</ele>
        <time>2020-04-22T12:36:29Z</time>
      </trkpt>
      <trkpt lat="47.69579" lon="5.88968">
        <ele>259</ele>
        <time>2020-04-22T12:36:52Z</time>
      </trkpt>
      <trkpt lat="47.69611" lon="5.88837">
        <ele>268</ele>
        <time>2020-04-22T12:38:07Z</time>
      </trkpt>
      <trkpt lat="47.69631" lon="5.88705">
        <ele>276</ele>
        <time>2020-04-22T12:39:20Z</time>
      </trkpt>
      <trkpt lat="47.69653" lon="5.88608">
        <ele>283</ele>
        <time>2020-04-22T12:40:15Z</time>
      </trkpt>
      <trkpt lat="47.69645" lon="5.88625">
        <ele>282</ele>
        <time>2020-04-22T12:40:26Z</time>
      </trkpt>
      <trkpt lat="47.69596" lon="5.88608">
        <ele>287</ele>
        <time>2020-04-22T12:41:06Z</time>
      </trkpt>
      <trkpt lat="47.69497" lon="5.88569">
        <ele>287</ele>
        <time>2020-04-22T12:42:28Z</time>
      </trkpt>
      <trkpt lat="47.69404" lon="5.88531">
        <ele>280</ele>
        <time>2020-04-22T12:43:46Z</time>
      </trkpt>
      <trkpt lat="47.69292" lon="5.88505">
        <ele>280</ele>
        <time>2020-04-22T12:45:16Z</time>
      </trkpt>
      <trkpt lat="47.69284" lon="5.88616">
        <ele>277</ele>
        <time>2020-04-22T12:46:17Z</time>
      </trkpt>
      <trkpt lat="47.69113" lon="5.88595">
        <ele>280</ele>
        <time>2020-04-22T12:48:34Z</time>
      </trkpt>
      <trkpt lat="47.68899" lon="5.88569">
        <ele>277</ele>
        <time>2020-04-22T12:51:26Z</time>
      </trkpt>
      <trkpt lat="47.68798" lon="5.88552">
        <ele>274</ele>
        <time>2020-04-22T12:52:47Z</time>
      </trkpt>
      <trkpt lat="47.68808" lon="5.88276">
        <ele>277</ele>
        <time>2020-04-22T12:55:16Z</time>
      </trkpt>
      <trkpt lat="47.6883" lon="5.87968">
        <ele>276</ele>
        <time>2020-04-22T12:58:03Z</time>
      </trkpt>
      <trkpt lat="47.68847" lon="5.87582">
        <ele>263</ele>
        <time>2020-04-22T13:01:32Z</time>
      </trkpt>
      <trkpt lat="47.69164" lon="5.87622">
        <ele>265</ele>
        <time>2020-04-22T13:05:46Z</time>
      </trkpt>
      <trkpt lat="47.69207" lon="5.87968">
        <ele>276</ele>
        <time>2020-04-22T13:08:56Z</time>
      </trkpt>
      <trkpt lat="47.69265" lon="5.87977">
        <ele>277</ele>
        <time>2020-04-22T13:09:43Z</time>
      </trkpt>
      <trkpt lat="47.69593" lon="5.88127">
        <ele>286</ele>
        <time>2020-04-22T13:14:18Z</time>
      </trkpt>
      <trkpt lat="47.69737" lon="5.88196">
        <ele>293</ele>
        <time>2020-04-22T13:16:19Z</time>
      </trkpt>
      <trkpt lat="47.69758" lon="5.88085">
        <ele>286</ele>
        <time>2020-04-22T13:17:21Z</time>
      </trkpt>
      <trkpt lat="47.70145" lon="5.88293">
        <ele>298</ele>
        <time>2020-04-22T13:22:50Z</time>
      </trkpt>
      <trkpt lat="47.70225" lon="5.88335">
        <ele>294</ele>
        <time>2020-04-22T13:23:58Z</time>
      </trkpt>
      <trkpt lat="47.70324" lon="5.88385">
        <ele>275</ele>
        <time>2020-04-22T13:25:22Z</time>
      </trkpt>
      <trkpt lat="47.70389" lon="5.883">
        <ele>275</ele>
        <time>2020-04-22T13:26:31Z</time>
      </trkpt>
      <trkpt lat="47.70421" lon="5.88311">
        <ele>269</ele>
        <time>2020-04-22T13:26:58Z</time>
      </trkpt>
      <trkpt lat="47.70649" lon="5.88578">
        <ele>258</ele>
        <time>2020-04-22T13:30:50Z</time>
      </trkpt>
      <trkpt lat="47.70736" lon="5.88685">
        <ele>256</ele>
        <time>2020-04-22T13:32:20Z</time>
      </trkpt>
    </trkseg>
  </trk>
</gpx>